sensor_id;sensor_type;location;lat;lon;timestamp;temperature;humidity
3876;DHT22;1953;51.222;6.624;2024-01-11T00:00:24;-1.70;1.00
3876;DHT22;1953;51.222;6.624;2024-01-11T00:05:07;-1.80;1.00
3876;DHT22;1953;51.222;6.624;2024-01-11T00:09:50;-1.80;1.00
3876;DHT22;1953;51.222;6.624;2024-01-11T00:14:32;-1.80;1.00
3876;DHT22;1953;51.222;6.624;2024-01-11T00:20:42;-1.80;1.00
3876;DHT22;1953;51.222;6.624;2024-01-11T00:25:25;-1.80;1.00
3876;DHT22;1953;51.222;6.624;2024-01-11T00:30:08;-1.90;1.00
3876;DHT22;1953;51.222;6.624;2024-01-11T00:34:50;-1.90;1.00
3876;DHT22;1953;51.222;6.624;2024-01-11T00:39:35;-1.90;1.00
3876;DHT22;1953;51.222;6.624;2024-01-11T00:44:17;-1.90;1.00
3876;DHT22;1953;51.222;6.624;2024-01-11T00:49:00;-1.90;1.00
3876;DHT22;1953;51.222;6.624;2024-01-11T00:53:42;-1.80;1.00
3876;DHT22;1953;51.222;6.624;2024-01-11T00:58:26;-1.90;1.00
3876;DHT22;1953;51.222;6.624;2024-01-11T01:03:09;-1.90;1.00
3876;DHT22;1953;51.222;6.624;2024-01-11T01:07:51;-1.90;1.00
3876;DHT22;1953;51.222;6.624;2024-01-11T01:12:34;-1.90;1.00
3876;DHT22;1953;51.222;6.624;2024-01-11T01:17:18;-1.90;1.00
3876;DHT22;1953;51.222;6.624;2024-01-11T01:22:00;-1.90;1.00
3876;DHT22;1953;51.222;6.624;2024-01-11T01:26:42;-1.90;1.00
3876;DHT22;1953;51.222;6.624;2024-01-11T01:31:25;-2.00;1.00
3876;DHT22;1953;51.222;6.624;2024-01-11T01:36:10;-2.00;1.00
3876;DHT22;1953;51.222;6.624;2024-01-11T01:40:52;-2.00;1.00
3876;DHT22;1953;51.222;6.624;2024-01-11T01:45:35;-2.00;1.00
3876;DHT22;1953;51.222;6.624;2024-01-11T01:50:18;-2.10;1.00
3876;DHT22;1953;51.222;6.624;2024-01-11T01:55:04;-2.10;1.00
3876;DHT22;1953;51.222;6.624;2024-01-11T01:59:49;-2.20;1.00
3876;DHT22;1953;51.222;6.624;2024-01-11T02:04:33;-2.20;1.00
3876;DHT22;1953;51.222;6.624;2024-01-11T02:09:17;-2.20;1.00
3876;DHT22;1953;51.222;6.624;2024-01-11T02:14:01;-2.20;1.00
3876;DHT22;1953;51.222;6.624;2024-01-11T02:18:44;-2.20;1.00
3876;DHT22;1953;51.222;6.624;2024-01-11T02:23:27;-2.30;1.00
3876;DHT22;1953;51.222;6.624;2024-01-11T02:28:12;-2.30;1.00
3876;DHT22;1953;51.222;6.624;2024-01-11T02:32:54;-2.30;1.00
3876;DHT22;1953;51.222;6.624;2024-01-11T02:37:38;-2.30;1.00
3876;DHT22;1953;51.222;6.624;2024-01-11T02:42:21;-2.30;1.00
3876;DHT22;1953;51.222;6.624;2024-01-11T02:47:05;-2.40;1.00
3876;DHT22;1953;51.222;6.624;2024-01-11T02:51:47;-2.40;1.00
3876;DHT22;1953;51.222;6.624;2024-01-11T02:56:30;-2.50;1.00
3876;DHT22;1953;51.222;6.624;2024-01-11T03:01:12;-2.50;1.00
3876;DHT22;1953;51.222;6.624;2024-01-11T03:05:56;-2.60;1.00
3876;DHT22;1953;51.222;6.624;2024-01-11T03:10:38;-2.70;1.00
3876;DHT22;1953;51.222;6.624;2024-01-11T03:15:21;-2.60;1.00
3876;DHT22;1953;51.222;6.624;2024-01-11T03:20:04;-2.60;1.00
3876;DHT22;1953;51.222;6.624;2024-01-11T03:24:48;-2.70;1.00
3876;DHT22;1953;51.222;6.624;2024-01-11T03:29:31;-2.70;1.00
3876;DHT22;1953;51.222;6.624;2024-01-11T03:34:13;-2.80;1.00
3876;DHT22;1953;51.222;6.624;2024-01-11T03:38:56;-2.90;1.00
3876;DHT22;1953;51.222;6.624;2024-01-11T03:43:40;-3.00;1.00
3876;DHT22;1953;51.222;6.624;2024-01-11T03:48:22;-3.00;1.00
3876;DHT22;1953;51.222;6.624;2024-01-11T03:53:05;-3.00;1.00
3876;DHT22;1953;51.222;6.624;2024-01-11T03:57:48;-3.10;1.00
3876;DHT22;1953;51.222;6.624;2024-01-11T04:02:31;-3.00;1.00
3876;DHT22;1953;51.222;6.624;2024-01-11T04:07:14;-3.00;1.00
3876;DHT22;1953;51.222;6.624;2024-01-11T04:11:56;-3.00;1.00
3876;DHT22;1953;51.222;6.624;2024-01-11T04:16:40;-3.00;1.00
3876;DHT22;1953;51.222;6.624;2024-01-11T04:21:25;-3.10;1.00
3876;DHT22;1953;51.222;6.624;2024-01-11T04:26:09;-3.10;1.00
3876;DHT22;1953;51.222;6.624;2024-01-11T04:30:52;-3.20;1.00
3876;DHT22;1953;51.222;6.624;2024-01-11T04:35:34;-3.20;1.00
3876;DHT22;1953;51.222;6.624;2024-01-11T04:40:18;-3.30;1.00
3876;DHT22;1953;51.222;6.624;2024-01-11T04:45:00;-3.30;1.00
3876;DHT22;1953;51.222;6.624;2024-01-11T04:49:43;-3.20;1.00
3876;DHT22;1953;51.222;6.624;2024-01-11T04:54:25;-3.30;1.00
3876;DHT22;1953;51.222;6.624;2024-01-11T04:59:09;-3.20;1.00
3876;DHT22;1953;51.222;6.624;2024-01-11T05:03:52;-3.20;1.00
3876;DHT22;1953;51.222;6.624;2024-01-11T05:08:35;-3.20;1.00
3876;DHT22;1953;51.222;6.624;2024-01-11T05:13:17;-3.20;1.00
3876;DHT22;1953;51.222;6.624;2024-01-11T05:18:01;-3.10;1.00
3876;DHT22;1953;51.222;6.624;2024-01-11T05:22:44;-3.20;1.00
3876;DHT22;1953;51.222;6.624;2024-01-11T05:27:26;-3.10;1.00
3876;DHT22;1953;51.222;6.624;2024-01-11T05:32:09;-3.10;1.00
3876;DHT22;1953;51.222;6.624;2024-01-11T05:36:52;-3.20;1.00
3876;DHT22;1953;51.222;6.624;2024-01-11T05:41:35;-3.20;1.00
3876;DHT22;1953;51.222;6.624;2024-01-11T05:46:17;-3.20;1.00
3876;DHT22;1953;51.222;6.624;2024-01-11T05:51:00;-3.20;1.00
3876;DHT22;1953;51.222;6.624;2024-01-11T05:55:44;-3.20;1.00
3876;DHT22;1953;51.222;6.624;2024-01-11T06:00:26;-3.20;1.00
3876;DHT22;1953;51.222;6.624;2024-01-11T06:05:09;-3.20;1.00
3876;DHT22;1953;51.222;6.624;2024-01-11T06:09:53;-3.30;1.00
3876;DHT22;1953;51.222;6.624;2024-01-11T06:14:37;-3.30;1.00
3876;DHT22;1953;51.222;6.624;2024-01-11T06:19:19;-3.30;1.00
3876;DHT22;1953;51.222;6.624;2024-01-11T06:24:02;-3.30;1.00
3876;DHT22;1953;51.222;6.624;2024-01-11T06:28:45;-3.40;1.00
3876;DHT22;1953;51.222;6.624;2024-01-11T06:33:29;-3.30;1.00
3876;DHT22;1953;51.222;6.624;2024-01-11T06:38:13;-3.40;1.00
3876;DHT22;1953;51.222;6.624;2024-01-11T06:42:55;-3.30;1.00
3876;DHT22;1953;51.222;6.624;2024-01-11T06:47:38;-3.30;1.00
3876;DHT22;1953;51.222;6.624;2024-01-11T06:52:22;-3.30;1.00
3876;DHT22;1953;51.222;6.624;2024-01-11T06:57:04;-3.30;1.00
3876;DHT22;1953;51.222;6.624;2024-01-11T07:01:47;-3.30;1.00
3876;DHT22;1953;51.222;6.624;2024-01-11T07:06:30;-3.20;1.00
3876;DHT22;1953;51.222;6.624;2024-01-11T07:11:14;-3.30;1.00
3876;DHT22;1953;51.222;6.624;2024-01-11T07:15:57;-3.30;1.00
3876;DHT22;1953;51.222;6.624;2024-01-11T07:20:40;-3.30;1.00
3876;DHT22;1953;51.222;6.624;2024-01-11T07:25:22;-3.30;1.00
3876;DHT22;1953;51.222;6.624;2024-01-11T07:30:08;-3.30;1.00
3876;DHT22;1953;51.222;6.624;2024-01-11T07:34:50;-3.30;1.00
3876;DHT22;1953;51.222;6.624;2024-01-11T07:39:33;-3.30;1.00
3876;DHT22;1953;51.222;6.624;2024-01-11T07:44:15;-3.30;1.00
3876;DHT22;1953;51.222;6.624;2024-01-11T07:48:59;-3.40;1.00
3876;DHT22;1953;51.222;6.624;2024-01-11T07:53:41;-3.40;1.00
3876;DHT22;1953;51.222;6.624;2024-01-11T07:58:24;-3.40;1.00
3876;DHT22;1953;51.222;6.624;2024-01-11T08:03:06;-3.30;1.00
3876;DHT22;1953;51.222;6.624;2024-01-11T08:07:51;-3.30;1.00
3876;DHT22;1953;51.222;6.624;2024-01-11T08:12:33;-3.30;1.00
3876;DHT22;1953;51.222;6.624;2024-01-11T08:17:16;-3.20;1.00
3876;DHT22;1953;51.222;6.624;2024-01-11T08:21:58;-3.10;1.00
3876;DHT22;1953;51.222;6.624;2024-01-11T08:26:42;-3.00;1.00
3876;DHT22;1953;51.222;6.624;2024-01-11T08:31:25;-2.90;1.00
3876;DHT22;1953;51.222;6.624;2024-01-11T08:36:07;-2.90;1.00
3876;DHT22;1953;51.222;6.624;2024-01-11T08:40:51;-2.80;1.00
3876;DHT22;1953;51.222;6.624;2024-01-11T08:45:35;-2.80;1.00
3876;DHT22;1953;51.222;6.624;2024-01-11T08:50:17;-2.70;1.00
3876;DHT22;1953;51.222;6.624;2024-01-11T08:55:01;-2.70;1.00
3876;DHT22;1953;51.222;6.624;2024-01-11T08:59:45;-2.60;1.00
3876;DHT22;1953;51.222;6.624;2024-01-11T09:04:29;-2.50;1.00
3876;DHT22;1953;51.222;6.624;2024-01-11T09:09:12;-2.40;1.00
3876;DHT22;1953;51.222;6.624;2024-01-11T09:13:55;-2.30;1.00
3876;DHT22;1953;51.222;6.624;2024-01-11T09:18:38;-2.20;1.00
3876;DHT22;1953;51.222;6.624;2024-01-11T09:23:22;-2.20;1.00
3876;DHT22;1953;51.222;6.624;2024-01-11T09:28:04;-2.10;1.00
3876;DHT22;1953;51.222;6.624;2024-01-11T09:32:47;-2.00;1.00
3876;DHT22;1953;51.222;6.624;2024-01-11T09:37:30;-1.90;1.00
3876;DHT22;1953;51.222;6.624;2024-01-11T09:42:13;-1.80;1.00
3876;DHT22;1953;51.222;6.624;2024-01-11T09:46:58;-1.80;1.00
3876;DHT22;1953;51.222;6.624;2024-01-11T09:51:43;-1.70;1.00
3876;DHT22;1953;51.222;6.624;2024-01-11T09:56:27;-1.60;1.00
3876;DHT22;1953;51.222;6.624;2024-01-11T10:01:11;-1.50;1.00
3876;DHT22;1953;51.222;6.624;2024-01-11T10:05:57;-1.40;1.00
3876;DHT22;1953;51.222;6.624;2024-01-11T10:10:39;-1.20;1.00
3876;DHT22;1953;51.222;6.624;2024-01-11T10:15:24;-1.10;1.00
3876;DHT22;1953;51.222;6.624;2024-01-11T10:20:09;-1.00;1.00
3876;DHT22;1953;51.222;6.624;2024-01-11T10:25:07;-0.90;1.00
3876;DHT22;1953;51.222;6.624;2024-01-11T10:29:52;-0.80;1.00
3876;DHT22;1953;51.222;6.624;2024-01-11T10:34:34;-0.80;1.00
3876;DHT22;1953;51.222;6.624;2024-01-11T10:39:24;-0.60;1.00
3876;DHT22;1953;51.222;6.624;2024-01-11T10:44:18;-0.50;1.00
3876;DHT22;1953;51.222;6.624;2024-01-11T10:49:04;-0.50;1.00
3876;DHT22;1953;51.222;6.624;2024-01-11T10:53:50;-0.40;1.00
3876;DHT22;1953;51.222;6.624;2024-01-11T10:58:36;-0.20;1.00
3876;DHT22;1953;51.222;6.624;2024-01-11T11:03:20;0.00;1.00
3876;DHT22;1953;51.222;6.624;2024-01-11T11:08:04;0.10;1.00
3876;DHT22;1953;51.222;6.624;2024-01-11T11:12:49;0.10;1.00
3876;DHT22;1953;51.222;6.624;2024-01-11T11:17:33;0.30;1.00
3876;DHT22;1953;51.222;6.624;2024-01-11T11:22:16;0.40;1.00
3876;DHT22;1953;51.222;6.624;2024-01-11T11:27:00;0.50;1.00
3876;DHT22;1953;51.222;6.624;2024-01-11T11:31:44;0.50;1.00
3876;DHT22;1953;51.222;6.624;2024-01-11T11:36:30;0.70;1.00
3876;DHT22;1953;51.222;6.624;2024-01-11T11:41:17;0.80;1.00
3876;DHT22;1953;51.222;6.624;2024-01-11T11:46:00;1.00;1.00
3876;DHT22;1953;51.222;6.624;2024-01-11T11:51:01;1.00;1.00
3876;DHT22;1953;51.222;6.624;2024-01-11T11:55:45;1.10;1.00
3876;DHT22;1953;51.222;6.624;2024-01-11T12:00:29;1.20;1.00
3876;DHT22;1953;51.222;6.624;2024-01-11T12:05:16;1.20;1.00
3876;DHT22;1953;51.222;6.624;2024-01-11T12:09:59;1.30;1.00
3876;DHT22;1953;51.222;6.624;2024-01-11T12:14:43;1.40;1.00
3876;DHT22;1953;51.222;6.624;2024-01-11T12:21:42;1.60;1.00
3876;DHT22;1953;51.222;6.624;2024-01-11T12:26:24;1.60;1.00
3876;DHT22;1953;51.222;6.624;2024-01-11T12:31:08;1.50;1.00
3876;DHT22;1953;51.222;6.624;2024-01-11T12:35:51;1.70;1.00
3876;DHT22;1953;51.222;6.624;2024-01-11T12:40:35;1.80;1.00
3876;DHT22;1953;51.222;6.624;2024-01-11T12:45:19;1.90;1.00
3876;DHT22;1953;51.222;6.624;2024-01-11T12:50:02;2.10;1.00
3876;DHT22;1953;51.222;6.624;2024-01-11T12:54:45;2.30;1.00
3876;DHT22;1953;51.222;6.624;2024-01-11T12:59:29;2.60;1.00
3876;DHT22;1953;51.222;6.624;2024-01-11T13:04:11;2.90;1.00
3876;DHT22;1953;51.222;6.624;2024-01-11T13:08:54;3.10;1.00
3876;DHT22;1953;51.222;6.624;2024-01-11T13:13:36;3.40;1.00
3876;DHT22;1953;51.222;6.624;2024-01-11T13:18:20;3.60;1.00
3876;DHT22;1953;51.222;6.624;2024-01-11T13:23:13;3.80;1.00
3876;DHT22;1953;51.222;6.624;2024-01-11T13:27:56;4.00;1.00
3876;DHT22;1953;51.222;6.624;2024-01-11T13:32:38;4.10;1.00
3876;DHT22;1953;51.222;6.624;2024-01-11T13:37:22;4.40;1.00
3876;DHT22;1953;51.222;6.624;2024-01-11T13:42:05;4.50;1.00
3876;DHT22;1953;51.222;6.624;2024-01-11T13:46:51;4.60;1.00
3876;DHT22;1953;51.222;6.624;2024-01-11T13:51:33;4.50;1.00
3876;DHT22;1953;51.222;6.624;2024-01-11T13:56:17;4.30;1.00
3876;DHT22;1953;51.222;6.624;2024-01-11T14:01:00;4.40;1.00
3876;DHT22;1953;51.222;6.624;2024-01-11T14:05:43;4.40;1.00
3876;DHT22;1953;51.222;6.624;2024-01-11T14:10:25;4.40;1.00
3876;DHT22;1953;51.222;6.624;2024-01-11T14:15:09;4.40;1.00
3876;DHT22;1953;51.222;6.624;2024-01-11T14:19:53;4.10;1.00
3876;DHT22;1953;51.222;6.624;2024-01-11T14:24:36;4.20;1.00
3876;DHT22;1953;51.222;6.624;2024-01-11T14:29:18;4.20;1.00
3876;DHT22;1953;51.222;6.624;2024-01-11T14:34:02;4.30;1.00
3876;DHT22;1953;51.222;6.624;2024-01-11T14:38:44;4.20;1.00
3876;DHT22;1953;51.222;6.624;2024-01-11T14:43:27;3.90;1.00
3876;DHT22;1953;51.222;6.624;2024-01-11T14:48:09;3.70;1.00
3876;DHT22;1953;51.222;6.624;2024-01-11T14:52:54;3.40;1.00
3876;DHT22;1953;51.222;6.624;2024-01-11T14:57:38;3.10;1.00
3876;DHT22;1953;51.222;6.624;2024-01-11T15:02:20;2.80;1.00
3876;DHT22;1953;51.222;6.624;2024-01-11T15:07:03;2.70;1.00
3876;DHT22;1953;51.222;6.624;2024-01-11T15:11:47;2.60;1.00
3876;DHT22;1953;51.222;6.624;2024-01-11T15:16:30;2.50;1.00
3876;DHT22;1953;51.222;6.624;2024-01-11T15:21:12;2.60;1.00
3876;DHT22;1953;51.222;6.624;2024-01-11T15:25:55;2.60;1.00
3876;DHT22;1953;51.222;6.624;2024-01-11T15:30:39;2.40;1.00
3876;DHT22;1953;51.222;6.624;2024-01-11T15:35:21;2.40;1.00
3876;DHT22;1953;51.222;6.624;2024-01-11T15:40:05;2.30;1.00
3876;DHT22;1953;51.222;6.624;2024-01-11T15:44:49;2.10;1.00
3876;DHT22;1953;51.222;6.624;2024-01-11T15:49:33;1.90;1.00
3876;DHT22;1953;51.222;6.624;2024-01-11T15:54:15;1.70;1.00
3876;DHT22;1953;51.222;6.624;2024-01-11T15:58:57;1.50;1.00
3876;DHT22;1953;51.222;6.624;2024-01-11T16:03:40;1.50;1.00
3876;DHT22;1953;51.222;6.624;2024-01-11T16:08:24;1.40;1.00
3876;DHT22;1953;51.222;6.624;2024-01-11T16:13:06;1.30;1.00
3876;DHT22;1953;51.222;6.624;2024-01-11T16:17:49;1.20;1.00
3876;DHT22;1953;51.222;6.624;2024-01-11T16:22:31;1.10;1.00
3876;DHT22;1953;51.222;6.624;2024-01-11T16:27:15;1.00;1.00
3876;DHT22;1953;51.222;6.624;2024-01-11T16:31:57;1.00;1.00
3876;DHT22;1953;51.222;6.624;2024-01-11T16:36:40;1.00;1.00
3876;DHT22;1953;51.222;6.624;2024-01-11T16:41:23;0.90;1.00
3876;DHT22;1953;51.222;6.624;2024-01-11T16:46:07;0.90;1.00
3876;DHT22;1953;51.222;6.624;2024-01-11T16:50:50;0.80;1.00
3876;DHT22;1953;51.222;6.624;2024-01-11T16:55:32;0.80;1.00
3876;DHT22;1953;51.222;6.624;2024-01-11T17:00:15;0.90;1.00
3876;DHT22;1953;51.222;6.624;2024-01-11T17:05:01;1.40;1.00
3876;DHT22;1953;51.222;6.624;2024-01-11T17:09:44;1.00;1.00
3876;DHT22;1953;51.222;6.624;2024-01-11T17:14:26;1.00;1.00
3876;DHT22;1953;51.222;6.624;2024-01-11T17:19:09;1.10;1.00
3876;DHT22;1953;51.222;6.624;2024-01-11T17:23:54;1.20;1.00
3876;DHT22;1953;51.222;6.624;2024-01-11T17:28:36;1.40;1.00
3876;DHT22;1953;51.222;6.624;2024-01-11T17:33:19;1.40;1.00
3876;DHT22;1953;51.222;6.624;2024-01-11T17:38:01;1.30;1.00
3876;DHT22;1953;51.222;6.624;2024-01-11T17:42:45;1.30;1.00
3876;DHT22;1953;51.222;6.624;2024-01-11T17:47:28;1.40;1.00
3876;DHT22;1953;51.222;6.624;2024-01-11T17:52:10;1.40;1.00
3876;DHT22;1953;51.222;6.624;2024-01-11T17:56:53;1.30;1.00
3876;DHT22;1953;51.222;6.624;2024-01-11T18:01:37;1.30;1.00
3876;DHT22;1953;51.222;6.624;2024-01-11T18:06:19;1.30;1.00
3876;DHT22;1953;51.222;6.624;2024-01-11T18:11:01;1.30;1.00
3876;DHT22;1953;51.222;6.624;2024-01-11T18:15:44;1.30;1.00
3876;DHT22;1953;51.222;6.624;2024-01-11T18:20:28;1.30;1.00
3876;DHT22;1953;51.222;6.624;2024-01-11T18:25:10;1.40;1.00
3876;DHT22;1953;51.222;6.624;2024-01-11T18:29:53;1.40;1.00
3876;DHT22;1953;51.222;6.624;2024-01-11T18:34:35;1.40;1.00
3876;DHT22;1953;51.222;6.624;2024-01-11T18:39:19;1.30;1.00
3876;DHT22;1953;51.222;6.624;2024-01-11T18:44:02;1.30;1.00
3876;DHT22;1953;51.222;6.624;2024-01-11T18:48:44;1.30;1.00
3876;DHT22;1953;51.222;6.624;2024-01-11T18:53:26;1.20;1.00
3876;DHT22;1953;51.222;6.624;2024-01-11T18:58:11;1.20;1.00
3876;DHT22;1953;51.222;6.624;2024-01-11T19:02:54;1.20;1.00
3876;DHT22;1953;51.222;6.624;2024-01-11T19:07:36;1.40;1.00
3876;DHT22;1953;51.222;6.624;2024-01-11T19:12:19;1.40;1.00
3876;DHT22;1953;51.222;6.624;2024-01-11T19:17:03;1.50;1.00
3876;DHT22;1953;51.222;6.624;2024-01-11T19:21:46;1.50;1.00
3876;DHT22;1953;51.222;6.624;2024-01-11T19:26:28;1.50;1.00
3876;DHT22;1953;51.222;6.624;2024-01-11T19:31:11;1.50;1.00
3876;DHT22;1953;51.222;6.624;2024-01-11T19:35:55;1.60;1.00
3876;DHT22;1953;51.222;6.624;2024-01-11T19:40:38;1.50;1.00
3876;DHT22;1953;51.222;6.624;2024-01-11T19:45:21;1.60;1.00
3876;DHT22;1953;51.222;6.624;2024-01-11T19:50:04;1.60;1.00
3876;DHT22;1953;51.222;6.624;2024-01-11T19:54:49;1.50;1.00
3876;DHT22;1953;51.222;6.624;2024-01-11T19:59:31;1.50;1.00
3876;DHT22;1953;51.222;6.624;2024-01-11T20:04:14;1.60;1.00
3876;DHT22;1953;51.222;6.624;2024-01-11T20:08:56;1.60;1.00
3876;DHT22;1953;51.222;6.624;2024-01-11T20:13:40;1.60;1.00
3876;DHT22;1953;51.222;6.624;2024-01-11T20:18:23;1.70;1.00
3876;DHT22;1953;51.222;6.624;2024-01-11T20:23:05;1.70;1.00
3876;DHT22;1953;51.222;6.624;2024-01-11T20:27:48;1.50;1.00
3876;DHT22;1953;51.222;6.624;2024-01-11T20:32:32;1.50;1.00
3876;DHT22;1953;51.222;6.624;2024-01-11T20:37:14;1.60;1.00
3876;DHT22;1953;51.222;6.624;2024-01-11T20:41:57;1.60;1.00
3876;DHT22;1953;51.222;6.624;2024-01-11T20:46:39;1.60;1.00
3876;DHT22;1953;51.222;6.624;2024-01-11T20:51:23;1.60;1.00
3876;DHT22;1953;51.222;6.624;2024-01-11T20:56:05;1.60;1.00
3876;DHT22;1953;51.222;6.624;2024-01-11T21:00:48;1.70;1.00
3876;DHT22;1953;51.222;6.624;2024-01-11T21:05:30;1.80;1.00
3876;DHT22;1953;51.222;6.624;2024-01-11T21:10:14;1.70;1.00
3876;DHT22;1953;51.222;6.624;2024-01-11T21:14:57;1.60;1.00
3876;DHT22;1953;51.222;6.624;2024-01-11T21:19:39;1.70;1.00
3876;DHT22;1953;51.222;6.624;2024-01-11T21:24:22;1.70;1.00
3876;DHT22;1953;51.222;6.624;2024-01-11T21:29:06;1.70;1.00
3876;DHT22;1953;51.222;6.624;2024-01-11T21:33:48;1.70;1.00
3876;DHT22;1953;51.222;6.624;2024-01-11T21:38:31;1.70;1.00
3876;DHT22;1953;51.222;6.624;2024-01-11T21:43:13;1.70;1.00
3876;DHT22;1953;51.222;6.624;2024-01-11T21:47:58;1.70;1.00
3876;DHT22;1953;51.222;6.624;2024-01-11T21:52:40;1.60;1.00
3876;DHT22;1953;51.222;6.624;2024-01-11T21:57:23;1.60;1.00
3876;DHT22;1953;51.222;6.624;2024-01-11T22:02:05;1.60;1.00
3876;DHT22;1953;51.222;6.624;2024-01-11T22:06:50;1.60;1.00
3876;DHT22;1953;51.222;6.624;2024-01-11T22:11:33;1.50;1.00
3876;DHT22;1953;51.222;6.624;2024-01-11T22:16:15;1.50;1.00
3876;DHT22;1953;51.222;6.624;2024-01-11T22:20:59;1.50;1.00
3876;DHT22;1953;51.222;6.624;2024-01-11T22:25:44;1.60;1.00
3876;DHT22;1953;51.222;6.624;2024-01-11T22:30:26;1.60;1.00
3876;DHT22;1953;51.222;6.624;2024-01-11T22:35:09;1.60;1.00
3876;DHT22;1953;51.222;6.624;2024-01-11T22:39:52;1.60;1.00
3876;DHT22;1953;51.222;6.624;2024-01-11T22:44:36;1.70;1.00
3876;DHT22;1953;51.222;6.624;2024-01-11T22:49:18;1.70;1.00
3876;DHT22;1953;51.222;6.624;2024-01-11T22:54:01;1.90;1.00
3876;DHT22;1953;51.222;6.624;2024-01-11T22:58:44;1.80;1.00
3876;DHT22;1953;51.222;6.624;2024-01-11T23:03:28;1.90;1.00
3876;DHT22;1953;51.222;6.624;2024-01-11T23:08:11;1.80;1.00
3876;DHT22;1953;51.222;6.624;2024-01-11T23:12:53;1.90;1.00
3876;DHT22;1953;51.222;6.624;2024-01-11T23:17:36;1.80;1.00
3876;DHT22;1953;51.222;6.624;2024-01-11T23:22:19;1.80;1.00
3876;DHT22;1953;51.222;6.624;2024-01-11T23:27:02;1.90;1.00
3876;DHT22;1953;51.222;6.624;2024-01-11T23:31:47;2.00;1.00
3876;DHT22;1953;51.222;6.624;2024-01-11T23:36:31;2.00;1.00
3876;DHT22;1953;51.222;6.624;2024-01-11T23:41:14;2.10;1.00
3876;DHT22;1953;51.222;6.624;2024-01-11T23:45:57;2.20;1.00
3876;DHT22;1953;51.222;6.624;2024-01-11T23:50:39;2.20;1.00
3876;DHT22;1953;51.222;6.624;2024-01-11T23:55:22;2.30;1.00
